Weather at Rivolto Air Base

Public forecast

Using degrees Celsius for public forecast. Weather courtesy of forecast.io.

Current aviation weather report (METAR) for Rivolto Air Base

Retrieved 2020/10/22 13:55 UTC (1 hour ago):

LIPI 221355Z 05003KT 4500 BR FEW012 SCT015 16/11 Q1023 RMK BKN VIS MIN 4500 WIND THR06 18003KT WIND THR24 16002KT GRN

Aviation forecast (TAF) for Rivolto Air Base

Forecast is more than 12 hours old.

Retrieved 2020/01/23 12:24 UTC (9 months ago):

TAF TAF LIPI 231100Z 2312/2324 06010KT CAVOK